This is the latest recevied weather packets stored in our database for station/object KF7ROW. If no packets are shown the sender has not sent any weather packets the latest 10 day(s).
| Time | Temp. | Humidity | Pressure | Rain* | Wind** | Luminosity | Snow |
|---|---|---|---|---|---|---|---|
| 1777254560 | 12.22° C | 74% | 1018 hPa | 0 mm | - | 53 W/m² | - |
| 1777254255 | 12.22° C | 76% | 1017.6 hPa | 0 mm | - | 56 W/m² | - |
| 1777253951 | 12.22° C | 76% | 1017.7 hPa | 0 mm | - | 77 W/m² | - |
| 1777253648 | 12.22° C | 76% | 1017.7 hPa | 0 mm | - | 77 W/m² | - |
| 1777253346 | 12.22° C | 75% | 1017.9 hPa | 0 mm | - | 144 W/m² | - |
| 1777253043 | 11.67° C | 78% | 1017.8 hPa | 0 mm | - | 71 W/m² | - |
| 1777252741 | 12.22° C | 77% | 1017.8 hPa | 0 mm | - | 64 W/m² | - |
| 1777252438 | 12.22° C | 75% | 1017.9 hPa | 0 mm | - | 178 W/m² | - |
| 1777252135 | 12.78° C | 75% | 1017.8 hPa | 0 mm | - | 192 W/m² | - |
| 1777251832 | 12.22° C | 76% | 1017.7 hPa | 0 mm | - | 213 W/m² | - |
| 1777251529 | 11.67° C | 78% | 1017.9 hPa | 0 mm | - | 98 W/m² | - |
| 1777251225 | 12.22° C | 79% | 1017.9 hPa | 0 mm | - | 83 W/m² | - |
| 1777250921 | 12.22° C | 78% | 1017.8 hPa | 0 mm | - | 87 W/m² | - |
| 1777250618 | 12.22° C | 78% | 1017.9 hPa | 0 mm | - | 241 W/m² | - |
| 1777250313 | 12.78° C | 76% | 1017.9 hPa | 0 mm | - | 99 W/m² | - |
| 1777250010 | 11.67° C | 78% | 1017.7 hPa | 0 mm | - | 304 W/m² | - |
| 1777249707 | 11.67° C | 78% | 1017.8 hPa | 0 mm | - | 340 W/m² | - |
| 1777249402 | 11.67° C | 77% | 1017.5 hPa | 0 mm | - | 168 W/m² | - |
| 1777249100 | 11.67° C | 77% | 1017.7 hPa | 0 mm | - | 120 W/m² | - |
| 1777248796 | 11.67° C | 78% | 1017.5 hPa | 0 mm | - | 105 W/m² | - |
| 1777248493 | 11.67° C | 77% | 1017.6 hPa | 0 mm | - | 111 W/m² | - |
| 1777248189 | 12.78° C | 76% | 1017.5 hPa | 0 mm | - | 131 W/m² | - |
| 1777247889 | 12.22° C | 76% | 1017.5 hPa | 0 mm | - | 434 W/m² | - |
| 1777247584 | 12.22° C | 76% | 1017.4 hPa | 0 mm | - | 208 W/m² | - |
| 1777247283 | 12.78° C | 75% | 1017.4 hPa | 0 mm | - | 147 W/m² | - |
* Rain latest hour (hover to see other rain measurements)
** Current wind speed in m/s (hover to see current wind gust speed)